sensor_id;sensor_type;location;lat;lon;timestamp;P1;durP1;ratioP1;P2;durP2;ratioP2
60867;SDS011;46702;48.370;10.794;2023-02-28T00:00:05;4.97;;;2.80;;
60867;SDS011;46702;48.370;10.794;2023-02-28T00:02:38;13.70;;;3.63;;
60867;SDS011;46702;48.370;10.794;2023-02-28T00:05:05;3.58;;;3.17;;
60867;SDS011;46702;48.370;10.794;2023-02-28T00:07:32;3.75;;;3.22;;
60867;SDS011;46702;48.370;10.794;2023-02-28T00:09:58;3.38;;;3.08;;
60867;SDS011;46702;48.370;10.794;2023-02-28T00:12:25;4.13;;;3.30;;
60867;SDS011;46702;48.370;10.794;2023-02-28T00:14:51;4.35;;;3.83;;
60867;SDS011;46702;48.370;10.794;2023-02-28T00:17:17;4.93;;;3.58;;
60867;SDS011;46702;48.370;10.794;2023-02-28T00:22:15;6.60;;;3.92;;
60867;SDS011;46702;48.370;10.794;2023-02-28T00:24:46;4.68;;;3.25;;
60867;SDS011;46702;48.370;10.794;2023-02-28T00:27:13;4.65;;;3.70;;
60867;SDS011;46702;48.370;10.794;2023-02-28T00:29:39;4.43;;;3.90;;
60867;SDS011;46702;48.370;10.794;2023-02-28T00:32:05;4.63;;;4.22;;
60867;SDS011;46702;48.370;10.794;2023-02-28T00:34:32;5.15;;;4.28;;
60867;SDS011;46702;48.370;10.794;2023-02-28T00:37:06;5.00;;;3.33;;
60867;SDS011;46702;48.370;10.794;2023-02-28T00:39:34;4.65;;;4.20;;
60867;SDS011;46702;48.370;10.794;2023-02-28T00:42:01;5.83;;;4.00;;
60867;SDS011;46702;48.370;10.794;2023-02-28T00:44:27;5.20;;;3.80;;
60867;SDS011;46702;48.370;10.794;2023-02-28T00:46:53;6.90;;;4.00;;
60867;SDS011;46702;48.370;10.794;2023-02-28T00:49:20;5.50;;;4.55;;
60867;SDS011;46702;48.370;10.794;2023-02-28T00:51:46;5.70;;;4.47;;
60867;SDS011;46702;48.370;10.794;2023-02-28T00:54:12;8.05;;;4.35;;
60867;SDS011;46702;48.370;10.794;2023-02-28T00:56:37;4.63;;;3.75;;
60867;SDS011;46702;48.370;10.794;2023-02-28T00:59:04;6.10;;;4.18;;
60867;SDS011;46702;48.370;10.794;2023-02-28T01:01:29;4.53;;;4.05;;
60867;SDS011;46702;48.370;10.794;2023-02-28T01:03:55;6.13;;;4.28;;
60867;SDS011;46702;48.370;10.794;2023-02-28T01:06:21;4.82;;;3.97;;
60867;SDS011;46702;48.370;10.794;2023-02-28T01:08:47;6.22;;;3.58;;
60867;SDS011;46702;48.370;10.794;2023-02-28T01:11:13;5.65;;;3.92;;
60867;SDS011;46702;48.370;10.794;2023-02-28T01:13:41;5.10;;;4.28;;
60867;SDS011;46702;48.370;10.794;2023-02-28T01:16:07;5.30;;;3.85;;
60867;SDS011;46702;48.370;10.794;2023-02-28T01:18:33;4.40;;;3.97;;
60867;SDS011;46702;48.370;10.794;2023-02-28T01:21:04;4.85;;;3.67;;
60867;SDS011;46702;48.370;10.794;2023-02-28T01:23:34;5.03;;;3.83;;
60867;SDS011;46702;48.370;10.794;2023-02-28T01:26:06;5.63;;;3.85;;
60867;SDS011;46702;48.370;10.794;2023-02-28T01:28:32;6.60;;;4.63;;
60867;SDS011;46702;48.370;10.794;2023-02-28T01:30:58;5.95;;;4.03;;
60867;SDS011;46702;48.370;10.794;2023-02-28T01:33:24;4.35;;;3.85;;
60867;SDS011;46702;48.370;10.794;2023-02-28T01:35:56;5.40;;;4.00;;
60867;SDS011;46702;48.370;10.794;2023-02-28T01:38:23;3.92;;;3.53;;
60867;SDS011;46702;48.370;10.794;2023-02-28T01:40:49;5.57;;;4.07;;
60867;SDS011;46702;48.370;10.794;2023-02-28T01:43:23;6.35;;;3.83;;
60867;SDS011;46702;48.370;10.794;2023-02-28T01:45:53;5.72;;;4.25;;
60867;SDS011;46702;48.370;10.794;2023-02-28T01:48:22;5.20;;;4.00;;
60867;SDS011;46702;48.370;10.794;2023-02-28T01:50:54;3.55;;;3.25;;
60867;SDS011;46702;48.370;10.794;2023-02-28T01:53:26;4.53;;;3.67;;
60867;SDS011;46702;48.370;10.794;2023-02-28T01:55:58;5.32;;;3.70;;
60867;SDS011;46702;48.370;10.794;2023-02-28T01:58:24;6.63;;;3.90;;
60867;SDS011;46702;48.370;10.794;2023-02-28T02:00:50;3.63;;;3.17;;
60867;SDS011;46702;48.370;10.794;2023-02-28T02:03:17;4.97;;;4.13;;
60867;SDS011;46702;48.370;10.794;2023-02-28T02:08:16;4.50;;;4.10;;
60867;SDS011;46702;48.370;10.794;2023-02-28T02:10:54;4.93;;;4.18;;
60867;SDS011;46702;48.370;10.794;2023-02-28T02:37:04;4.95;;;4.13;;
60867;SDS011;46702;48.370;10.794;2023-02-28T02:42:22;4.07;;;3.40;;
60867;SDS011;46702;48.370;10.794;2023-02-28T02:45:01;6.13;;;4.43;;
60867;SDS011;46702;48.370;10.794;2023-02-28T02:47:42;5.90;;;4.40;;
60867;SDS011;46702;48.370;10.794;2023-02-28T02:50:12;6.15;;;4.43;;
60867;SDS011;46702;48.370;10.794;2023-02-28T02:52:45;6.95;;;4.55;;
60867;SDS011;46702;48.370;10.794;2023-02-28T02:55:16;6.47;;;4.18;;
60867;SDS011;46702;48.370;10.794;2023-02-28T03:00:29;4.25;;;3.78;;
60867;SDS011;46702;48.370;10.794;2023-02-28T03:03:01;5.65;;;4.15;;
60867;SDS011;46702;48.370;10.794;2023-02-28T03:05:32;6.72;;;5.03;;
60867;SDS011;46702;48.370;10.794;2023-02-28T03:08:04;4.03;;;3.30;;
60867;SDS011;46702;48.370;10.794;2023-02-28T03:10:35;5.07;;;4.57;;
60867;SDS011;46702;48.370;10.794;2023-02-28T03:13:16;4.93;;;3.63;;
60867;SDS011;46702;48.370;10.794;2023-02-28T03:24:19;5.88;;;4.43;;
60867;SDS011;46702;48.370;10.794;2023-02-28T03:33:10;8.10;;;4.63;;
60867;SDS011;46702;48.370;10.794;2023-02-28T03:35:43;6.97;;;4.43;;
60867;SDS011;46702;48.370;10.794;2023-02-28T03:38:25;7.47;;;4.72;;
60867;SDS011;46702;48.370;10.794;2023-02-28T03:41:05;7.18;;;4.80;;
60867;SDS011;46702;48.370;10.794;2023-02-28T03:43:51;5.75;;;5.25;;
60867;SDS011;46702;48.370;10.794;2023-02-28T03:46:23;8.80;;;4.78;;
60867;SDS011;46702;48.370;10.794;2023-02-28T03:48:54;5.65;;;4.05;;
60867;SDS011;46702;48.370;10.794;2023-02-28T03:51:28;6.43;;;4.70;;
60867;SDS011;46702;48.370;10.794;2023-02-28T03:53:57;6.50;;;5.03;;
60867;SDS011;46702;48.370;10.794;2023-02-28T03:56:37;10.60;;;4.70;;
60867;SDS011;46702;48.370;10.794;2023-02-28T03:59:20;6.47;;;5.13;;
60867;SDS011;46702;48.370;10.794;2023-02-28T04:01:51;6.57;;;4.63;;
60867;SDS011;46702;48.370;10.794;2023-02-28T04:04:17;7.13;;;4.47;;
60867;SDS011;46702;48.370;10.794;2023-02-28T04:06:44;8.05;;;5.30;;
60867;SDS011;46702;48.370;10.794;2023-02-28T04:09:11;6.60;;;4.45;;
60867;SDS011;46702;48.370;10.794;2023-02-28T04:11:48;7.07;;;5.07;;
60867;SDS011;46702;48.370;10.794;2023-02-28T04:14:16;7.05;;;4.88;;
60867;SDS011;46702;48.370;10.794;2023-02-28T04:16:42;6.72;;;4.70;;
60867;SDS011;46702;48.370;10.794;2023-02-28T04:19:09;6.07;;;4.72;;
60867;SDS011;46702;48.370;10.794;2023-02-28T04:21:37;6.10;;;4.78;;
60867;SDS011;46702;48.370;10.794;2023-02-28T04:24:06;6.55;;;4.82;;
60867;SDS011;46702;48.370;10.794;2023-02-28T04:26:34;5.85;;;5.10;;
60867;SDS011;46702;48.370;10.794;2023-02-28T04:29:02;7.95;;;4.90;;
60867;SDS011;46702;48.370;10.794;2023-02-28T04:31:29;6.65;;;4.55;;
60867;SDS011;46702;48.370;10.794;2023-02-28T04:33:55;7.13;;;4.93;;
60867;SDS011;46702;48.370;10.794;2023-02-28T04:36:21;7.28;;;5.03;;
60867;SDS011;46702;48.370;10.794;2023-02-28T04:38:48;8.85;;;5.68;;
60867;SDS011;46702;48.370;10.794;2023-02-28T04:41:14;7.60;;;4.97;;
60867;SDS011;46702;48.370;10.794;2023-02-28T04:43:40;7.75;;;5.00;;
60867;SDS011;46702;48.370;10.794;2023-02-28T04:46:05;5.95;;;4.35;;
60867;SDS011;46702;48.370;10.794;2023-02-28T04:48:32;6.15;;;4.97;;
60867;SDS011;46702;48.370;10.794;2023-02-28T04:51:00;8.73;;;5.38;;
60867;SDS011;46702;48.370;10.794;2023-02-28T04:53:31;7.57;;;4.78;;
60867;SDS011;46702;48.370;10.794;2023-02-28T04:55:57;12.07;;;6.07;;
60867;SDS011;46702;48.370;10.794;2023-02-28T04:58:23;6.43;;;5.05;;
60867;SDS011;46702;48.370;10.794;2023-02-28T05:00:49;5.45;;;4.78;;
60867;SDS011;46702;48.370;10.794;2023-02-28T05:03:16;8.70;;;5.70;;
60867;SDS011;46702;48.370;10.794;2023-02-28T05:05:41;7.60;;;5.43;;
60867;SDS011;46702;48.370;10.794;2023-02-28T05:08:07;8.60;;;5.80;;
60867;SDS011;46702;48.370;10.794;2023-02-28T05:10:34;8.98;;;5.68;;
60867;SDS011;46702;48.370;10.794;2023-02-28T05:13:00;10.40;;;5.53;;
60867;SDS011;46702;48.370;10.794;2023-02-28T05:15:26;9.23;;;5.55;;
60867;SDS011;46702;48.370;10.794;2023-02-28T05:17:52;6.40;;;5.50;;
60867;SDS011;46702;48.370;10.794;2023-02-28T05:20:17;7.75;;;5.68;;
60867;SDS011;46702;48.370;10.794;2023-02-28T05:22:43;7.30;;;5.80;;
60867;SDS011;46702;48.370;10.794;2023-02-28T05:25:13;7.28;;;5.70;;
60867;SDS011;46702;48.370;10.794;2023-02-28T05:30:29;7.38;;;6.03;;
60867;SDS011;46702;48.370;10.794;2023-02-28T05:32:56;9.38;;;6.10;;
60867;SDS011;46702;48.370;10.794;2023-02-28T05:35:23;9.07;;;6.50;;
60867;SDS011;46702;48.370;10.794;2023-02-28T05:37:49;9.60;;;5.05;;
60867;SDS011;46702;48.370;10.794;2023-02-28T05:40:15;7.05;;;5.10;;
60867;SDS011;46702;48.370;10.794;2023-02-28T05:42:41;6.50;;;4.50;;
60867;SDS011;46702;48.370;10.794;2023-02-28T05:45:07;7.50;;;5.50;;
60867;SDS011;46702;48.370;10.794;2023-02-28T05:47:34;8.35;;;5.88;;
60867;SDS011;46702;48.370;10.794;2023-02-28T05:50:00;6.97;;;5.25;;
60867;SDS011;46702;48.370;10.794;2023-02-28T05:52:26;8.32;;;5.70;;
60867;SDS011;46702;48.370;10.794;2023-02-28T05:54:52;9.40;;;6.20;;
60867;SDS011;46702;48.370;10.794;2023-02-28T05:57:18;10.38;;;6.88;;
60867;SDS011;46702;48.370;10.794;2023-02-28T05:59:44;8.50;;;5.45;;
60867;SDS011;46702;48.370;10.794;2023-02-28T06:02:11;8.02;;;5.28;;
60867;SDS011;46702;48.370;10.794;2023-02-28T06:04:38;10.63;;;5.38;;
60867;SDS011;46702;48.370;10.794;2023-02-28T06:07:05;8.38;;;5.72;;
60867;SDS011;46702;48.370;10.794;2023-02-28T06:09:31;11.77;;;6.95;;
60867;SDS011;46702;48.370;10.794;2023-02-28T06:11:58;9.40;;;5.65;;
60867;SDS011;46702;48.370;10.794;2023-02-28T06:14:24;10.38;;;6.93;;
60867;SDS011;46702;48.370;10.794;2023-02-28T06:16:51;9.68;;;5.93;;
60867;SDS011;46702;48.370;10.794;2023-02-28T06:19:18;9.18;;;6.47;;
60867;SDS011;46702;48.370;10.794;2023-02-28T06:21:44;7.90;;;5.80;;
60867;SDS011;46702;48.370;10.794;2023-02-28T06:24:10;9.80;;;5.93;;
60867;SDS011;46702;48.370;10.794;2023-02-28T06:26:36;10.52;;;6.13;;
60867;SDS011;46702;48.370;10.794;2023-02-28T06:29:02;7.72;;;5.18;;
60867;SDS011;46702;48.370;10.794;2023-02-28T06:31:28;9.98;;;6.40;;
60867;SDS011;46702;48.370;10.794;2023-02-28T06:33:54;10.23;;;5.95;;
60867;SDS011;46702;48.370;10.794;2023-02-28T06:36:21;8.35;;;6.10;;
60867;SDS011;46702;48.370;10.794;2023-02-28T06:38:46;8.70;;;5.57;;
60867;SDS011;46702;48.370;10.794;2023-02-28T06:41:16;7.75;;;5.72;;
60867;SDS011;46702;48.370;10.794;2023-02-28T06:43:43;9.38;;;5.80;;
60867;SDS011;46702;48.370;10.794;2023-02-28T06:46:11;16.33;;;7.55;;
60867;SDS011;46702;48.370;10.794;2023-02-28T06:48:39;10.07;;;6.50;;
60867;SDS011;46702;48.370;10.794;2023-02-28T06:51:06;8.85;;;5.07;;
60867;SDS011;46702;48.370;10.794;2023-02-28T06:53:38;8.18;;;6.18;;
60867;SDS011;46702;48.370;10.794;2023-02-28T06:56:08;10.07;;;5.95;;
60867;SDS011;46702;48.370;10.794;2023-02-28T06:58:54;8.52;;;6.20;;
60867;SDS011;46702;48.370;10.794;2023-02-28T07:01:21;10.63;;;6.68;;
60867;SDS011;46702;48.370;10.794;2023-02-28T07:03:48;9.00;;;6.20;;
60867;SDS011;46702;48.370;10.794;2023-02-28T07:06:17;9.88;;;7.47;;
60867;SDS011;46702;48.370;10.794;2023-02-28T07:08:43;9.88;;;6.97;;
60867;SDS011;46702;48.370;10.794;2023-02-28T07:11:09;12.18;;;8.05;;
60867;SDS011;46702;48.370;10.794;2023-02-28T07:13:35;10.90;;;7.53;;
60867;SDS011;46702;48.370;10.794;2023-02-28T07:16:03;15.23;;;8.02;;
60867;SDS011;46702;48.370;10.794;2023-02-28T07:18:30;11.02;;;7.13;;
60867;SDS011;46702;48.370;10.794;2023-02-28T07:20:56;11.98;;;7.40;;
60867;SDS011;46702;48.370;10.794;2023-02-28T07:23:22;8.88;;;5.88;;
60867;SDS011;46702;48.370;10.794;2023-02-28T07:25:49;13.80;;;6.28;;
60867;SDS011;46702;48.370;10.794;2023-02-28T07:28:15;11.23;;;7.73;;
60867;SDS011;46702;48.370;10.794;2023-02-28T07:30:41;11.45;;;8.00;;
60867;SDS011;46702;48.370;10.794;2023-02-28T07:33:07;14.55;;;7.45;;
60867;SDS011;46702;48.370;10.794;2023-02-28T07:35:33;9.90;;;6.28;;
60867;SDS011;46702;48.370;10.794;2023-02-28T07:37:59;10.57;;;6.68;;
60867;SDS011;46702;48.370;10.794;2023-02-28T07:40:25;10.20;;;6.78;;
60867;SDS011;46702;48.370;10.794;2023-02-28T07:42:51;9.30;;;4.78;;
60867;SDS011;46702;48.370;10.794;2023-02-28T07:45:17;10.10;;;6.63;;
60867;SDS011;46702;48.370;10.794;2023-02-28T07:47:43;9.57;;;6.22;;
60867;SDS011;46702;48.370;10.794;2023-02-28T07:50:10;9.68;;;6.38;;
60867;SDS011;46702;48.370;10.794;2023-02-28T07:52:37;8.13;;;5.70;;
60867;SDS011;46702;48.370;10.794;2023-02-28T07:55:04;7.55;;;5.80;;
60867;SDS011;46702;48.370;10.794;2023-02-28T07:57:32;9.10;;;6.63;;
60867;SDS011;46702;48.370;10.794;2023-02-28T07:59:57;7.00;;;5.28;;
60867;SDS011;46702;48.370;10.794;2023-02-28T08:02:23;7.88;;;5.10;;
60867;SDS011;46702;48.370;10.794;2023-02-28T08:04:49;9.43;;;6.07;;
60867;SDS011;46702;48.370;10.794;2023-02-28T08:07:15;10.90;;;6.25;;
60867;SDS011;46702;48.370;10.794;2023-02-28T08:09:42;9.98;;;6.88;;
60867;SDS011;46702;48.370;10.794;2023-02-28T08:12:08;12.10;;;7.32;;
60867;SDS011;46702;48.370;10.794;2023-02-28T08:14:35;14.70;;;8.10;;
60867;SDS011;46702;48.370;10.794;2023-02-28T08:17:02;14.35;;;9.50;;
60867;SDS011;46702;48.370;10.794;2023-02-28T08:19:31;13.27;;;6.75;;
60867;SDS011;46702;48.370;10.794;2023-02-28T08:21:58;10.30;;;7.15;;
60867;SDS011;46702;48.370;10.794;2023-02-28T08:24:24;14.88;;;7.18;;
60867;SDS011;46702;48.370;10.794;2023-02-28T08:26:50;14.40;;;8.35;;
60867;SDS011;46702;48.370;10.794;2023-02-28T08:29:17;11.35;;;7.65;;
60867;SDS011;46702;48.370;10.794;2023-02-28T08:31:44;11.55;;;6.88;;
60867;SDS011;46702;48.370;10.794;2023-02-28T08:34:10;13.02;;;8.30;;
60867;SDS011;46702;48.370;10.794;2023-02-28T08:36:38;9.10;;;5.97;;
60867;SDS011;46702;48.370;10.794;2023-02-28T08:41:32;13.93;;;8.43;;
60867;SDS011;46702;48.370;10.794;2023-02-28T08:43:58;24.05;;;8.60;;
60867;SDS011;46702;48.370;10.794;2023-02-28T08:46:25;13.98;;;8.25;;
60867;SDS011;46702;48.370;10.794;2023-02-28T08:48:51;14.02;;;8.07;;
60867;SDS011;46702;48.370;10.794;2023-02-28T08:51:24;13.25;;;7.15;;
60867;SDS011;46702;48.370;10.794;2023-02-28T08:53:55;13.07;;;7.22;;
60867;SDS011;46702;48.370;10.794;2023-02-28T08:56:23;11.20;;;6.88;;
60867;SDS011;46702;48.370;10.794;2023-02-28T08:58:49;12.20;;;6.95;;
60867;SDS011;46702;48.370;10.794;2023-02-28T09:01:17;12.60;;;8.23;;
60867;SDS011;46702;48.370;10.794;2023-02-28T09:03:45;11.50;;;7.07;;
60867;SDS011;46702;48.370;10.794;2023-02-28T09:06:14;15.32;;;8.90;;
60867;SDS011;46702;48.370;10.794;2023-02-28T09:08:44;14.25;;;9.80;;
60867;SDS011;46702;48.370;10.794;2023-02-28T09:11:12;14.77;;;8.73;;
60867;SDS011;46702;48.370;10.794;2023-02-28T09:13:39;12.82;;;8.48;;
60867;SDS011;46702;48.370;10.794;2023-02-28T09:16:06;12.35;;;7.85;;
60867;SDS011;46702;48.370;10.794;2023-02-28T09:18:36;15.63;;;9.40;;
60867;SDS011;46702;48.370;10.794;2023-02-28T09:21:05;15.75;;;9.65;;
60867;SDS011;46702;48.370;10.794;2023-02-28T09:23:41;12.13;;;8.60;;
60867;SDS011;46702;48.370;10.794;2023-02-28T09:26:14;14.50;;;8.98;;
60867;SDS011;46702;48.370;10.794;2023-02-28T09:28:51;14.10;;;9.18;;
60867;SDS011;46702;48.370;10.794;2023-02-28T09:31:20;13.88;;;8.48;;
60867;SDS011;46702;48.370;10.794;2023-02-28T09:33:51;16.38;;;9.07;;
60867;SDS011;46702;48.370;10.794;2023-02-28T09:36:21;14.18;;;8.98;;
60867;SDS011;46702;48.370;10.794;2023-02-28T09:38:57;14.75;;;8.63;;
60867;SDS011;46702;48.370;10.794;2023-02-28T09:41:47;14.05;;;8.07;;
60867;SDS011;46702;48.370;10.794;2023-02-28T09:44:38;13.15;;;8.23;;
60867;SDS011;46702;48.370;10.794;2023-02-28T09:47:12;12.05;;;7.25;;
60867;SDS011;46702;48.370;10.794;2023-02-28T09:53:06;10.90;;;7.97;;
60867;SDS011;46702;48.370;10.794;2023-02-28T09:55:53;10.77;;;8.00;;
60867;SDS011;46702;48.370;10.794;2023-02-28T10:04:33;11.60;;;7.20;;
60867;SDS011;46702;48.370;10.794;2023-02-28T10:07:11;9.93;;;7.22;;
60867;SDS011;46702;48.370;10.794;2023-02-28T10:10:01;12.05;;;8.82;;
60867;SDS011;46702;48.370;10.794;2023-02-28T10:12:34;13.77;;;8.55;;
60867;SDS011;46702;48.370;10.794;2023-02-28T10:15:07;10.75;;;8.02;;
60867;SDS011;46702;48.370;10.794;2023-02-28T10:17:41;14.77;;;8.45;;
60867;SDS011;46702;48.370;10.794;2023-02-28T10:20:14;13.32;;;8.57;;
60867;SDS011;46702;48.370;10.794;2023-02-28T10:25:19;15.65;;;8.82;;
60867;SDS011;46702;48.370;10.794;2023-02-28T10:27:46;15.55;;;8.80;;
60867;SDS011;46702;48.370;10.794;2023-02-28T10:30:13;10.20;;;7.15;;
60867;SDS011;46702;48.370;10.794;2023-02-28T10:32:49;9.60;;;6.93;;
60867;SDS011;46702;48.370;10.794;2023-02-28T10:35:40;14.10;;;8.63;;
60867;SDS011;46702;48.370;10.794;2023-02-28T10:38:11;9.70;;;7.10;;
60867;SDS011;46702;48.370;10.794;2023-02-28T10:40:42;10.90;;;7.65;;
60867;SDS011;46702;48.370;10.794;2023-02-28T10:45:52;10.85;;;6.90;;
60867;SDS011;46702;48.370;10.794;2023-02-28T10:48:29;14.07;;;9.55;;
60867;SDS011;46702;48.370;10.794;2023-02-28T10:51:12;15.10;;;9.00;;
60867;SDS011;46702;48.370;10.794;2023-02-28T10:58:44;12.95;;;8.43;;
60867;SDS011;46702;48.370;10.794;2023-02-28T11:01:17;14.82;;;8.85;;
60867;SDS011;46702;48.370;10.794;2023-02-28T11:04:14;12.60;;;7.68;;
60867;SDS011;46702;48.370;10.794;2023-02-28T11:09:41;10.75;;;7.55;;
60867;SDS011;46702;48.370;10.794;2023-02-28T11:14:49;11.85;;;8.45;;
60867;SDS011;46702;48.370;10.794;2023-02-28T11:17:25;11.70;;;8.48;;
60867;SDS011;46702;48.370;10.794;2023-02-28T11:19:57;15.68;;;8.20;;
60867;SDS011;46702;48.370;10.794;2023-02-28T11:22:28;12.73;;;6.82;;
60867;SDS011;46702;48.370;10.794;2023-02-28T11:24:58;11.25;;;7.32;;
60867;SDS011;46702;48.370;10.794;2023-02-28T11:32:26;12.85;;;7.68;;
60867;SDS011;46702;48.370;10.794;2023-02-28T11:35:03;12.85;;;8.82;;
60867;SDS011;46702;48.370;10.794;2023-02-28T11:37:51;16.45;;;9.55;;
60867;SDS011;46702;48.370;10.794;2023-02-28T11:40:18;15.80;;;10.30;;
60867;SDS011;46702;48.370;10.794;2023-02-28T11:52:04;16.77;;;8.48;;
60867;SDS011;46702;48.370;10.794;2023-02-28T11:54:58;11.35;;;7.50;;
60867;SDS011;46702;48.370;10.794;2023-02-28T12:08:45;15.15;;;8.32;;
60867;SDS011;46702;48.370;10.794;2023-02-28T12:14:20;14.07;;;8.80;;
60867;SDS011;46702;48.370;10.794;2023-02-28T12:28:41;11.50;;;7.57;;
60867;SDS011;46702;48.370;10.794;2023-02-28T12:31:23;14.85;;;9.13;;
60867;SDS011;46702;48.370;10.794;2023-02-28T12:34:02;12.32;;;7.07;;
60867;SDS011;46702;48.370;10.794;2023-02-28T12:36:35;10.77;;;8.13;;
60867;SDS011;46702;48.370;10.794;2023-02-28T12:39:12;15.68;;;9.27;;
60867;SDS011;46702;48.370;10.794;2023-02-28T12:41:54;11.13;;;7.65;;
60867;SDS011;46702;48.370;10.794;2023-02-28T12:46:51;12.50;;;7.07;;
60867;SDS011;46702;48.370;10.794;2023-02-28T12:49:34;12.25;;;8.82;;
60867;SDS011;46702;48.370;10.794;2023-02-28T12:52:11;15.27;;;9.20;;
60867;SDS011;46702;48.370;10.794;2023-02-28T12:54:57;15.38;;;8.15;;
60867;SDS011;46702;48.370;10.794;2023-02-28T13:00:15;14.10;;;8.75;;
60867;SDS011;46702;48.370;10.794;2023-02-28T13:11:01;10.15;;;6.20;;
60867;SDS011;46702;48.370;10.794;2023-02-28T13:13:27;11.40;;;6.82;;
60867;SDS011;46702;48.370;10.794;2023-02-28T13:18:32;10.57;;;7.75;;
60867;SDS011;46702;48.370;10.794;2023-02-28T13:21:21;8.95;;;5.78;;
60867;SDS011;46702;48.370;10.794;2023-02-28T13:29:02;13.00;;;6.93;;
60867;SDS011;46702;48.370;10.794;2023-02-28T13:34:27;10.75;;;6.82;;
60867;SDS011;46702;48.370;10.794;2023-02-28T13:37:29;11.15;;;7.22;;
60867;SDS011;46702;48.370;10.794;2023-02-28T13:39:45;10.93;;;6.95;;
60867;SDS011;46702;48.370;10.794;2023-02-28T13:47:33;9.32;;;7.35;;
60867;SDS011;46702;48.370;10.794;2023-02-28T13:55:31;11.63;;;9.07;;
60867;SDS011;46702;48.370;10.794;2023-02-28T14:03:43;14.50;;;8.55;;
60867;SDS011;46702;48.370;10.794;2023-02-28T14:06:33;12.32;;;7.95;;
60867;SDS011;46702;48.370;10.794;2023-02-28T14:09:18;13.45;;;8.50;;
60867;SDS011;46702;48.370;10.794;2023-02-28T14:11:51;13.25;;;8.02;;
60867;SDS011;46702;48.370;10.794;2023-02-28T14:17:05;10.02;;;5.97;;
60867;SDS011;46702;48.370;10.794;2023-02-28T14:19:36;15.57;;;8.23;;
60867;SDS011;46702;48.370;10.794;2023-02-28T14:38:13;11.45;;;7.90;;
60867;SDS011;46702;48.370;10.794;2023-02-28T14:40:46;8.20;;;5.78;;
60867;SDS011;46702;48.370;10.794;2023-02-28T14:43:24;12.63;;;8.10;;
60867;SDS011;46702;48.370;10.794;2023-02-28T14:45:59;10.93;;;6.85;;
60867;SDS011;46702;48.370;10.794;2023-02-28T14:48:29;10.60;;;6.97;;
60867;SDS011;46702;48.370;10.794;2023-02-28T14:50:59;11.18;;;6.50;;
60867;SDS011;46702;48.370;10.794;2023-02-28T14:53:27;13.18;;;7.30;;
60867;SDS011;46702;48.370;10.794;2023-02-28T14:55:55;11.57;;;7.82;;
60867;SDS011;46702;48.370;10.794;2023-02-28T14:58:28;9.90;;;6.97;;
60867;SDS011;46702;48.370;10.794;2023-02-28T15:00:57;12.00;;;7.55;;
60867;SDS011;46702;48.370;10.794;2023-02-28T15:03:32;10.38;;;7.18;;
60867;SDS011;46702;48.370;10.794;2023-02-28T15:06:00;10.05;;;6.70;;
60867;SDS011;46702;48.370;10.794;2023-02-28T15:08:28;13.00;;;8.43;;
60867;SDS011;46702;48.370;10.794;2023-02-28T15:11:01;12.00;;;6.57;;
60867;SDS011;46702;48.370;10.794;2023-02-28T15:16:22;10.23;;;6.50;;
60867;SDS011;46702;48.370;10.794;2023-02-28T15:18:52;13.68;;;7.65;;
60867;SDS011;46702;48.370;10.794;2023-02-28T15:21:22;11.70;;;6.85;;
60867;SDS011;46702;48.370;10.794;2023-02-28T15:24:05;10.95;;;7.00;;
60867;SDS011;46702;48.370;10.794;2023-02-28T15:26:42;12.30;;;7.45;;
60867;SDS011;46702;48.370;10.794;2023-02-28T15:29:15;8.95;;;6.70;;
60867;SDS011;46702;48.370;10.794;2023-02-28T15:31:48;9.40;;;6.20;;
60867;SDS011;46702;48.370;10.794;2023-02-28T15:34:26;8.85;;;6.00;;
60867;SDS011;46702;48.370;10.794;2023-02-28T15:36:58;9.05;;;6.13;;
60867;SDS011;46702;48.370;10.794;2023-02-28T15:39:25;10.10;;;6.55;;
60867;SDS011;46702;48.370;10.794;2023-02-28T15:41:55;12.30;;;6.78;;
60867;SDS011;46702;48.370;10.794;2023-02-28T15:44:36;11.68;;;6.35;;
60867;SDS011;46702;48.370;10.794;2023-02-28T15:47:06;9.95;;;6.60;;
60867;SDS011;46702;48.370;10.794;2023-02-28T15:49:49;12.90;;;6.63;;
60867;SDS011;46702;48.370;10.794;2023-02-28T15:52:24;11.52;;;7.63;;
60867;SDS011;46702;48.370;10.794;2023-02-28T15:55:34;10.32;;;6.47;;
60867;SDS011;46702;48.370;10.794;2023-02-28T15:57:55;9.80;;;6.55;;
60867;SDS011;46702;48.370;10.794;2023-02-28T16:00:25;10.05;;;7.22;;
60867;SDS011;46702;48.370;10.794;2023-02-28T16:02:52;13.05;;;6.47;;
60867;SDS011;46702;48.370;10.794;2023-02-28T16:07:58;7.82;;;5.25;;
60867;SDS011;46702;48.370;10.794;2023-02-28T16:10:26;9.25;;;6.43;;
60867;SDS011;46702;48.370;10.794;2023-02-28T16:12:54;10.32;;;6.80;;
60867;SDS011;46702;48.370;10.794;2023-02-28T16:17:59;12.40;;;6.00;;
60867;SDS011;46702;48.370;10.794;2023-02-28T16:20:26;10.15;;;6.72;;
60867;SDS011;46702;48.370;10.794;2023-02-28T16:25:20;9.23;;;5.50;;
60867;SDS011;46702;48.370;10.794;2023-02-28T16:27:52;9.80;;;5.95;;
60867;SDS011;46702;48.370;10.794;2023-02-28T16:30:24;11.18;;;7.40;;
60867;SDS011;46702;48.370;10.794;2023-02-28T16:32:51;11.80;;;6.57;;
60867;SDS011;46702;48.370;10.794;2023-02-28T16:35:19;10.57;;;6.22;;
60867;SDS011;46702;48.370;10.794;2023-02-28T16:37:45;10.27;;;7.47;;
60867;SDS011;46702;48.370;10.794;2023-02-28T16:40:16;10.13;;;6.60;;
60867;SDS011;46702;48.370;10.794;2023-02-28T16:42:47;10.38;;;6.63;;
60867;SDS011;46702;48.370;10.794;2023-02-28T16:45:15;9.53;;;6.47;;
60867;SDS011;46702;48.370;10.794;2023-02-28T16:47:44;9.88;;;7.07;;
60867;SDS011;46702;48.370;10.794;2023-02-28T16:50:17;8.63;;;5.85;;
60867;SDS011;46702;48.370;10.794;2023-02-28T16:52:48;13.88;;;6.60;;
60867;SDS011;46702;48.370;10.794;2023-02-28T16:57:42;12.10;;;7.05;;
60867;SDS011;46702;48.370;10.794;2023-02-28T17:00:12;13.90;;;7.10;;
60867;SDS011;46702;48.370;10.794;2023-02-28T17:02:38;12.35;;;6.90;;
60867;SDS011;46702;48.370;10.794;2023-02-28T17:05:04;12.30;;;7.85;;
60867;SDS011;46702;48.370;10.794;2023-02-28T17:07:31;12.45;;;7.90;;
60867;SDS011;46702;48.370;10.794;2023-02-28T17:09:58;14.07;;;6.85;;
60867;SDS011;46702;48.370;10.794;2023-02-28T17:12:26;13.65;;;6.85;;
60867;SDS011;46702;48.370;10.794;2023-02-28T17:14:52;13.52;;;7.68;;
60867;SDS011;46702;48.370;10.794;2023-02-28T17:17:18;14.63;;;7.13;;
60867;SDS011;46702;48.370;10.794;2023-02-28T17:19:46;9.18;;;6.60;;
60867;SDS011;46702;48.370;10.794;2023-02-28T17:22:12;11.63;;;7.30;;
60867;SDS011;46702;48.370;10.794;2023-02-28T17:24:40;15.37;;;7.60;;
60867;SDS011;46702;48.370;10.794;2023-02-28T17:27:09;10.23;;;6.35;;
60867;SDS011;46702;48.370;10.794;2023-02-28T17:29:38;13.80;;;7.50;;
60867;SDS011;46702;48.370;10.794;2023-02-28T17:32:04;14.27;;;7.20;;
60867;SDS011;46702;48.370;10.794;2023-02-28T17:34:30;13.35;;;7.63;;
60867;SDS011;46702;48.370;10.794;2023-02-28T17:36:55;13.52;;;6.85;;
60867;SDS011;46702;48.370;10.794;2023-02-28T17:39:21;16.10;;;7.95;;
60867;SDS011;46702;48.370;10.794;2023-02-28T17:41:55;14.38;;;8.82;;
60867;SDS011;46702;48.370;10.794;2023-02-28T17:44:22;12.75;;;8.30;;
60867;SDS011;46702;48.370;10.794;2023-02-28T17:46:49;20.70;;;9.95;;
60867;SDS011;46702;48.370;10.794;2023-02-28T17:49:16;16.13;;;9.20;;
60867;SDS011;46702;48.370;10.794;2023-02-28T17:51:42;18.48;;;10.10;;
60867;SDS011;46702;48.370;10.794;2023-02-28T17:54:09;13.60;;;7.82;;
60867;SDS011;46702;48.370;10.794;2023-02-28T17:56:39;15.93;;;8.85;;